Terminal Aerodrome Forecast
Issued by NWS Wilmington, OH

Current Version | Previous Version | Graphics & Text | Print | Product List | Glossary On
Versions: 1 2 3 4 5 6 7 8 9 10 11 12 13 14 15 16 17 18 19 20 21 22 23 24 25 26 27 28 29 30 31
000
FTUS41 KILN 240520
TAFCVG
TAF
KCVG 240520Z 2406/2512 09012KT P6SM OVC050
     FM240700 09008KT P6SM VCSH OVC040
     FM241200 09012KT 3SM -SHRA BR BKN015 OVC040
     FM241800 07012KT 5SM BR VCSH SCT009 OVC012
     FM242100 05008KT 5SM BR VCSH OVC009
     FM250200 01007KT P6SM OVC006=

USA.gov is the U.S. government's official web portal to all federal, state and local government web resources and services.